createdAt,value
2022-10-16T00:00:29.253Z,58.32
2022-10-16T00:01:24.932Z,58.74
2022-10-16T00:01:58.175Z,59.54
2022-10-16T00:02:31.292Z,60.21
2022-10-16T00:03:05.003Z,60.88
2022-10-16T00:03:40.299Z,61.46
2022-10-16T00:04:13.805Z,62.10
2022-10-16T00:04:46.949Z,62.60
2022-10-16T00:05:20.125Z,63.25
2022-10-16T00:05:53.206Z,63.47
2022-10-16T00:06:28.189Z,63.46
2022-10-16T00:07:01.206Z,63.03
2022-10-16T00:07:34.347Z,62.51
2022-10-16T00:08:08.051Z,61.73
2022-10-16T00:08:41.804Z,61.02
2022-10-16T00:09:14.793Z,60.06
2022-10-16T00:09:48.045Z,59.36
2022-10-16T00:10:21.309Z,58.82
2022-10-16T00:11:00.224Z,58.39
2022-10-16T00:11:37.754Z,58.31
2022-10-16T00:12:10.803Z,58.80
2022-10-16T00:12:44.134Z,59.28
2022-10-16T00:13:19.250Z,59.86
2022-10-16T00:13:56.080Z,60.62
2022-10-16T00:14:29.225Z,61.36
2022-10-16T00:15:02.392Z,61.87
2022-10-16T00:15:40.456Z,62.46
2022-10-16T00:16:15.635Z,63.21
2022-10-16T00:16:48.802Z,63.68
2022-10-16T00:17:21.947Z,64.00
2022-10-16T00:17:55.289Z,64.14
2022-10-16T00:18:29.949Z,64.11
2022-10-16T00:19:03.370Z,64.03
2022-10-16T00:19:36.475Z,63.83
2022-10-16T00:20:09.891Z,63.72
2022-10-16T00:20:43.260Z,63.65
2022-10-16T00:21:19.792Z,63.68
2022-10-16T00:21:52.947Z,63.69
2022-10-16T00:22:26.068Z,63.73
2022-10-16T00:22:59.468Z,63.76
2022-10-16T00:23:33.350Z,63.76
2022-10-16T00:24:09.968Z,63.79
2022-10-16T00:24:43.161Z,63.84
2022-10-16T00:25:16.522Z,63.90
2022-10-16T00:25:58.213Z,64.05
2022-10-16T00:26:33.788Z,64.10
2022-10-16T00:27:06.956Z,64.23
2022-10-16T00:27:40.176Z,64.31
2022-10-16T00:28:13.291Z,64.39
2022-10-16T00:28:50.754Z,64.45
2022-10-16T00:29:23.908Z,64.49
2022-10-16T00:30:30.400Z,64.68
2022-10-16T00:31:12.427Z,64.79
2022-10-16T00:31:45.780Z,64.79
2022-10-16T00:32:21.718Z,64.95
2022-10-16T00:32:55.230Z,64.98
2022-10-16T00:33:28.387Z,65.12
2022-10-16T00:34:01.923Z,65.19
2022-10-16T00:34:35.179Z,65.23
2022-10-16T00:35:08.359Z,65.33
2022-10-16T00:35:41.570Z,65.36
2022-10-16T00:36:17.222Z,65.28
2022-10-16T00:36:50.213Z,65.09
2022-10-16T00:37:23.329Z,64.82
2022-10-16T00:37:56.507Z,64.45
2022-10-16T00:38:29.694Z,64.19
2022-10-16T00:39:03.282Z,64.00
2022-10-16T00:39:36.867Z,63.94
2022-10-16T00:40:10.980Z,63.78
2022-10-16T00:40:44.749Z,63.70
2022-10-16T00:41:18.763Z,63.73
2022-10-16T00:41:52.250Z,63.62
2022-10-16T00:42:25.469Z,63.49
2022-10-16T00:42:59.504Z,63.51
2022-10-16T00:43:38.778Z,63.52
2022-10-16T00:44:43.054Z,63.62
2022-10-16T00:45:16.357Z,63.74
2022-10-16T00:45:49.428Z,64.04
2022-10-16T00:46:31.415Z,63.92
2022-10-16T00:47:04.579Z,63.30
2022-10-16T00:47:46.226Z,63.17
2022-10-16T00:48:19.419Z,62.74
2022-10-16T00:49:05.685Z,61.61
2022-10-16T00:49:38.945Z,61.16
2022-10-16T00:50:15.472Z,60.24
2022-10-16T00:50:48.570Z,59.77
2022-10-16T00:51:29.372Z,59.30
2022-10-16T00:52:02.345Z,58.97
2022-10-16T00:52:36.225Z,58.77
2022-10-16T00:53:09.293Z,58.82
2022-10-16T00:53:42.458Z,59.17
2022-10-16T00:54:34.642Z,59.67
2022-10-16T00:55:10.574Z,60.01
2022-10-16T00:55:43.687Z,61.28
2022-10-16T00:56:17.883Z,61.84
2022-10-16T00:56:52.049Z,62.50
2022-10-16T00:57:26.515Z,63.22
2022-10-16T00:57:59.642Z,63.67
2022-10-16T00:58:33.201Z,63.83
2022-10-16T00:59:15.327Z,63.52
2022-10-16T00:59:48.438Z,63.03
2022-10-16T01:00:25.967Z,62.17
2022-10-16T01:00:58.977Z,61.48
2022-10-16T01:01:32.224Z,60.63
2022-10-16T01:02:08.859Z,60.01
2022-10-16T01:02:42.168Z,59.61
2022-10-16T01:03:35.609Z,58.79
2022-10-16T01:04:08.973Z,58.31
2022-10-16T01:04:49.819Z,58.19
2022-10-16T01:05:28.927Z,58.41
2022-10-16T01:07:25.889Z,59.43
2022-10-16T01:08:22.624Z,60.44
2022-10-16T01:09:12.043Z,61.19
2022-10-16T01:09:45.211Z,62.18
2022-10-16T01:10:36.344Z,63.19
2022-10-16T01:11:17.516Z,64.84
2022-10-16T01:12:36.569Z,65.04
2022-10-16T01:13:19.193Z,64.62
2022-10-16T01:13:59.690Z,62.32
2022-10-16T01:14:47.120Z,61.17
2022-10-16T01:15:36.803Z,60.52
2022-10-16T01:16:24.789Z,59.44
2022-10-16T01:17:08.032Z,58.07
2022-10-16T01:17:53.528Z,57.70
2022-10-16T01:18:39.434Z,57.93
2022-10-16T01:19:27.145Z,58.44
2022-10-16T01:20:19.932Z,58.92
2022-10-16T01:21:09.750Z,59.61
2022-10-16T01:21:47.111Z,60.41
2022-10-16T01:22:21.500Z,61.43
2022-10-16T01:23:05.511Z,62.17
2022-10-16T01:23:47.758Z,62.70
2022-10-16T01:24:23.966Z,63.72
2022-10-16T01:25:01.626Z,63.50
2022-10-16T01:25:59.884Z,62.93
2022-10-16T01:26:45.127Z,62.93
2022-10-16T01:27:32.617Z,61.42
2022-10-16T01:28:13.650Z,60.57
2022-10-16T01:28:59.698Z,59.59
2022-10-16T01:29:51.717Z,58.78
2022-10-16T01:30:30.613Z,57.87
2022-10-16T01:31:04.486Z,57.85
2022-10-16T01:31:42.689Z,58.34
2022-10-16T01:32:33.423Z,58.78
2022-10-16T01:33:13.440Z,59.26
2022-10-16T01:33:58.674Z,60.14
2022-10-16T01:34:43.261Z,60.71
2022-10-16T01:35:25.978Z,61.42
2022-10-16T01:36:11.058Z,62.19
2022-10-16T01:36:58.266Z,62.88
2022-10-16T01:37:34.697Z,63.92
2022-10-16T01:38:16.238Z,63.67
2022-10-16T01:38:54.132Z,63.32
2022-10-16T01:39:32.584Z,62.36
2022-10-16T01:40:13.532Z,61.61
2022-10-16T01:40:53.019Z,60.84
2022-10-16T01:41:33.589Z,60.10
2022-10-16T01:42:14.159Z,59.54
2022-10-16T01:43:39.765Z,57.84
2022-10-16T01:44:22.064Z,57.91
2022-10-16T01:44:57.588Z,58.10
2022-10-16T01:45:33.060Z,59.00
2022-10-16T01:46:08.595Z,59.62
2022-10-16T01:46:47.171Z,60.18
2022-10-16T01:47:25.220Z,60.59
2022-10-16T01:48:01.692Z,61.10
2022-10-16T01:48:37.029Z,61.53
2022-10-16T01:49:11.829Z,62.09
2022-10-16T01:49:46.196Z,62.65
2022-10-16T01:50:22.374Z,63.07
2022-10-16T01:51:01.541Z,63.32
2022-10-16T01:51:37.307Z,63.06
2022-10-16T01:52:16.580Z,62.42
2022-10-16T01:52:54.302Z,61.80
2022-10-16T01:53:28.503Z,61.04
2022-10-16T01:54:03.729Z,60.06
2022-10-16T01:54:39.423Z,59.48
2022-10-16T01:55:17.325Z,58.77
2022-10-16T01:55:52.944Z,58.27
2022-10-16T01:56:27.587Z,58.07
2022-10-16T01:57:02.245Z,58.46
2022-10-16T01:57:39.690Z,58.80
2022-10-16T01:58:14.767Z,59.33
2022-10-16T01:58:53.896Z,59.94
2022-10-16T01:59:31.070Z,60.42
2022-10-16T02:00:13.370Z,61.10
2022-10-16T02:00:49.173Z,61.47
2022-10-16T02:01:26.098Z,62.18
2022-10-16T02:02:09.249Z,62.77
2022-10-16T02:02:45.657Z,63.37
2022-10-16T02:03:21.332Z,63.22
2022-10-16T02:03:59.095Z,62.58
2022-10-16T02:04:45.265Z,61.97
2022-10-16T02:05:24.502Z,61.27
2022-10-16T02:05:59.541Z,60.37
2022-10-16T02:06:33.405Z,59.95
2022-10-16T02:07:07.177Z,59.49
2022-10-16T02:07:42.558Z,59.10
2022-10-16T02:08:16.124Z,58.51
2022-10-16T02:08:49.532Z,58.21
2022-10-16T02:09:22.848Z,58.35
2022-10-16T02:09:56.640Z,58.44
2022-10-16T02:10:32.843Z,58.89
2022-10-16T02:11:06.611Z,59.35
2022-10-16T02:11:39.775Z,59.95
2022-10-16T02:12:25.311Z,60.47
2022-10-16T02:13:25.003Z,60.67
2022-10-16T02:14:05.489Z,61.12
2022-10-16T02:14:40.571Z,62.03
2022-10-16T02:15:13.656Z,62.95
2022-10-16T02:15:46.851Z,63.71
2022-10-16T02:16:20.065Z,64.13
2022-10-16T02:16:53.445Z,63.90
2022-10-16T02:17:27.225Z,63.57
2022-10-16T02:18:00.425Z,62.96
2022-10-16T02:18:33.575Z,62.22
2022-10-16T02:19:08.125Z,61.55
2022-10-16T02:19:42.447Z,60.86
2022-10-16T02:20:16.053Z,60.24
2022-10-16T02:21:15.035Z,59.43
2022-10-16T02:21:55.588Z,59.07
2022-10-16T02:22:35.005Z,58.06
2022-10-16T02:23:14.683Z,58.10
2022-10-16T02:24:17.471Z,58.47
2022-10-16T02:24:58.143Z,58.87
2022-10-16T02:25:35.161Z,59.84
2022-10-16T02:26:13.716Z,60.68
2022-10-16T02:27:02.783Z,61.22
2022-10-16T02:28:05.310Z,61.67
2022-10-16T02:28:46.810Z,62.65
2022-10-16T02:29:25.620Z,63.75
2022-10-16T02:30:27.407Z,63.69
2022-10-16T02:31:03.255Z,65.56
2022-10-16T02:31:42.499Z,64.21
2022-10-16T02:32:20.307Z,61.75
2022-10-16T02:32:55.058Z,60.96
2022-10-16T02:33:30.530Z,59.96
2022-10-16T02:34:07.144Z,59.16
2022-10-16T02:34:42.084Z,58.16
2022-10-16T02:35:18.684Z,57.80
2022-10-16T02:35:52.341Z,57.93
2022-10-16T02:36:26.816Z,58.37
2022-10-16T02:37:03.180Z,58.84
2022-10-16T02:37:38.238Z,59.38
2022-10-16T02:38:13.313Z,60.12
2022-10-16T02:38:47.296Z,60.84
2022-10-16T02:39:21.939Z,61.59
2022-10-16T02:39:58.396Z,62.01
2022-10-16T02:40:32.494Z,62.25
2022-10-16T02:41:06.036Z,62.47
2022-10-16T02:41:39.860Z,62.76
2022-10-16T02:42:16.884Z,62.65
2022-10-16T02:42:53.886Z,62.39
2022-10-16T02:43:27.883Z,61.53
2022-10-16T02:44:01.045Z,60.56
2022-10-16T02:44:34.357Z,59.73
2022-10-16T02:45:09.622Z,58.98
2022-10-16T02:45:43.063Z,58.23
2022-10-16T02:46:18.195Z,57.69
2022-10-16T02:46:51.352Z,57.45
2022-10-16T02:47:24.533Z,57.69
2022-10-16T02:47:57.951Z,58.14
2022-10-16T02:48:31.094Z,58.59
2022-10-16T02:49:04.269Z,59.29
2022-10-16T02:49:37.309Z,60.01
2022-10-16T02:50:10.365Z,60.77
2022-10-16T02:50:43.536Z,61.49
2022-10-16T02:51:16.853Z,62.31
2022-10-16T02:51:50.053Z,63.15
2022-10-16T02:52:23.781Z,64.11
2022-10-16T02:52:57.164Z,64.56
2022-10-16T02:53:30.312Z,64.58
2022-10-16T02:54:04.094Z,64.51
2022-10-16T02:54:37.120Z,64.42
2022-10-16T02:55:10.364Z,64.25
2022-10-16T02:55:43.646Z,64.13
2022-10-16T02:56:16.829Z,63.98
2022-10-16T02:56:50.118Z,63.90
2022-10-16T02:57:23.348Z,63.82
2022-10-16T02:57:57.196Z,63.72
2022-10-16T02:58:30.243Z,63.69
2022-10-16T02:59:03.294Z,63.68
2022-10-16T02:59:36.490Z,63.69
2022-10-16T03:00:13.316Z,63.79
2022-10-16T03:00:47.209Z,63.86
2022-10-16T03:01:20.473Z,63.92
2022-10-16T03:01:53.776Z,64.02
2022-10-16T03:02:27.135Z,64.07
2022-10-16T03:03:00.245Z,64.02
2022-10-16T03:03:33.490Z,64.01
2022-10-16T03:04:06.720Z,63.90
2022-10-16T03:04:40.237Z,63.74
2022-10-16T03:05:13.745Z,63.79
2022-10-16T03:05:47.135Z,63.80
2022-10-16T03:06:20.518Z,63.88
2022-10-16T03:06:53.783Z,63.83
2022-10-16T03:07:27.140Z,63.88
2022-10-16T03:08:01.983Z,64.00
2022-10-16T03:08:35.342Z,64.14
2022-10-16T03:09:09.241Z,64.27
2022-10-16T03:09:43.625Z,64.30
2022-10-16T03:10:17.537Z,64.59
2022-10-16T03:10:52.198Z,64.67
2022-10-16T03:11:25.389Z,64.32
2022-10-16T03:11:58.415Z,63.32
2022-10-16T03:12:31.599Z,62.79
2022-10-16T03:13:05.036Z,62.32
2022-10-16T03:13:38.184Z,62.22
2022-10-16T03:14:11.206Z,62.00
2022-10-16T03:14:44.181Z,62.06
2022-10-16T03:15:17.302Z,62.09
2022-10-16T03:15:50.610Z,62.11
2022-10-16T03:16:23.797Z,62.23
2022-10-16T03:16:56.930Z,62.44
2022-10-16T03:17:30.087Z,62.51
2022-10-16T03:18:03.576Z,62.45
2022-10-16T03:18:37.162Z,62.49
2022-10-16T03:19:10.486Z,62.57
2022-10-16T03:19:43.891Z,62.56
2022-10-16T03:20:17.149Z,62.59
2022-10-16T03:20:50.630Z,62.57
2022-10-16T03:21:24.269Z,62.61
2022-10-16T03:21:57.527Z,62.52
2022-10-16T03:22:30.782Z,62.55
2022-10-16T03:23:04.315Z,62.45
2022-10-16T03:23:37.344Z,62.54
2022-10-16T03:24:10.511Z,62.55
2022-10-16T03:24:43.705Z,62.66
2022-10-16T03:25:16.896Z,62.67
2022-10-16T03:25:50.315Z,62.53
2022-10-16T03:26:23.501Z,62.45
2022-10-16T03:26:56.756Z,62.35
2022-10-16T03:27:30.270Z,62.20
2022-10-16T03:28:04.327Z,61.96
2022-10-16T03:28:37.655Z,61.75
2022-10-16T03:29:11.014Z,61.65
2022-10-16T03:29:44.152Z,61.46
2022-10-16T03:30:17.689Z,60.86
2022-10-16T03:30:50.713Z,60.47
2022-10-16T03:31:23.962Z,60.24
2022-10-16T03:31:58.098Z,60.16
2022-10-16T03:32:31.352Z,60.20
2022-10-16T03:33:04.475Z,60.24
2022-10-16T03:33:37.668Z,60.40
2022-10-16T03:34:10.865Z,60.51
2022-10-16T03:34:44.084Z,60.68
2022-10-16T03:35:17.186Z,60.67
2022-10-16T03:35:55.295Z,60.75
2022-10-16T03:36:28.466Z,60.77
2022-10-16T03:37:01.837Z,60.76
2022-10-16T03:37:35.167Z,60.77
2022-10-16T03:38:08.265Z,60.74
2022-10-16T03:38:41.436Z,60.72
2022-10-16T03:39:14.766Z,60.71
2022-10-16T03:39:48.105Z,60.71
2022-10-16T03:40:21.946Z,60.70
2022-10-16T03:40:55.048Z,60.73
2022-10-16T03:41:28.460Z,60.77
2022-10-16T03:42:01.582Z,60.84
2022-10-16T03:42:34.783Z,60.91
2022-10-16T03:43:07.946Z,60.99
2022-10-16T03:43:41.159Z,61.18
2022-10-16T03:44:14.767Z,61.07
2022-10-16T03:44:48.002Z,60.75
2022-10-16T03:45:21.602Z,60.17
2022-10-16T03:45:54.756Z,59.41
2022-10-16T03:46:28.397Z,58.52
2022-10-16T03:47:01.518Z,57.85
2022-10-16T03:47:34.680Z,57.49
2022-10-16T03:48:08.328Z,57.47
2022-10-16T03:48:42.013Z,57.81
2022-10-16T03:49:15.119Z,58.38
2022-10-16T03:49:48.362Z,59.01
2022-10-16T03:50:21.558Z,59.41
2022-10-16T03:50:54.580Z,59.96
2022-10-16T03:51:27.801Z,60.56
2022-10-16T03:52:01.046Z,61.17
2022-10-16T03:52:34.296Z,61.79
2022-10-16T03:53:07.764Z,62.45
2022-10-16T03:53:40.906Z,62.96
2022-10-16T03:54:14.249Z,63.52
2022-10-16T03:54:47.361Z,63.55
2022-10-16T03:55:20.629Z,63.30
2022-10-16T03:55:53.688Z,62.92
2022-10-16T03:56:27.015Z,62.61
2022-10-16T03:57:00.084Z,62.41
2022-10-16T03:57:33.153Z,62.23
2022-10-16T03:58:06.156Z,62.21
2022-10-16T03:58:39.310Z,62.08
2022-10-16T03:59:12.367Z,62.03
2022-10-16T03:59:45.634Z,62.17
2022-10-16T04:00:18.773Z,62.23
2022-10-16T04:00:51.822Z,62.23
2022-10-16T04:01:25.144Z,62.25
2022-10-16T04:01:58.395Z,62.15
2022-10-16T04:02:31.642Z,62.02
2022-10-16T04:03:04.868Z,61.87
2022-10-16T04:03:38.093Z,61.88
2022-10-16T04:04:11.157Z,61.81
2022-10-16T04:04:44.492Z,61.64
2022-10-16T04:05:17.735Z,61.16
2022-10-16T04:05:51.381Z,60.80
2022-10-16T04:06:24.427Z,60.52
2022-10-16T04:06:57.515Z,60.52
2022-10-16T04:07:30.852Z,60.64
2022-10-16T04:08:04.749Z,60.61
2022-10-16T04:08:38.147Z,60.47
2022-10-16T04:09:11.374Z,60.19
2022-10-16T04:09:44.424Z,59.63
2022-10-16T04:10:17.616Z,59.10
2022-10-16T04:10:50.827Z,58.67
2022-10-16T04:11:24.106Z,58.67
2022-10-16T04:11:57.591Z,58.86
2022-10-16T04:12:30.893Z,59.22
2022-10-16T04:13:04.326Z,59.73
2022-10-16T04:13:38.151Z,60.40
2022-10-16T04:14:11.389Z,60.91
2022-10-16T04:14:44.468Z,61.46
2022-10-16T04:15:17.966Z,62.01
2022-10-16T04:15:51.021Z,62.45
2022-10-16T04:16:24.348Z,62.95
2022-10-16T04:16:57.609Z,63.11
2022-10-16T04:17:30.861Z,63.13
2022-10-16T04:18:04.726Z,63.20
2022-10-16T04:18:38.565Z,63.30
2022-10-16T04:19:12.436Z,62.78
2022-10-16T04:19:45.444Z,61.89
2022-10-16T04:20:18.965Z,61.23
2022-10-16T04:20:52.047Z,60.57
2022-10-16T04:21:25.149Z,59.87
2022-10-16T04:21:58.171Z,59.29
2022-10-16T04:22:31.192Z,58.59
2022-10-16T04:23:04.409Z,58.00
2022-10-16T04:23:37.617Z,58.02
2022-10-16T04:24:12.607Z,58.22
2022-10-16T04:24:45.878Z,58.64
2022-10-16T04:25:19.177Z,59.37
2022-10-16T04:25:52.347Z,59.89
2022-10-16T04:26:25.414Z,60.43
2022-10-16T04:26:58.511Z,61.09
2022-10-16T04:27:32.571Z,61.58
2022-10-16T04:28:05.773Z,62.01
2022-10-16T04:28:38.907Z,62.56
2022-10-16T04:29:11.919Z,63.07
2022-10-16T04:29:45.033Z,63.27
2022-10-16T04:30:18.305Z,63.30
2022-10-16T04:30:52.077Z,63.00
2022-10-16T04:31:25.339Z,62.79
2022-10-16T04:31:58.366Z,62.59
2022-10-16T04:32:31.638Z,62.64
2022-10-16T04:33:04.707Z,62.71
2022-10-16T04:33:37.826Z,62.69
2022-10-16T04:34:11.068Z,62.59
2022-10-16T04:34:44.279Z,62.41
2022-10-16T04:35:19.465Z,62.18
2022-10-16T04:36:03.787Z,62.01
2022-10-16T04:36:36.872Z,61.75
2022-10-16T04:37:09.915Z,61.31
2022-10-16T04:37:42.978Z,61.27
2022-10-16T04:38:16.140Z,61.01
2022-10-16T04:38:49.254Z,60.93
2022-10-16T04:39:22.354Z,60.40
2022-10-16T04:39:55.626Z,60.04
2022-10-16T04:40:28.731Z,59.44
2022-10-16T04:41:02.049Z,58.80
2022-10-16T04:41:35.213Z,58.13
2022-10-16T04:42:08.255Z,57.79
2022-10-16T04:42:41.974Z,57.65
2022-10-16T04:43:15.088Z,58.01
2022-10-16T04:43:48.170Z,58.67
2022-10-16T04:44:21.200Z,59.24
2022-10-16T04:44:54.371Z,59.73
2022-10-16T04:45:27.517Z,60.20
2022-10-16T04:46:01.073Z,60.71
2022-10-16T04:46:34.071Z,60.98
2022-10-16T04:47:07.151Z,61.34
2022-10-16T04:47:40.308Z,61.76
2022-10-16T04:48:13.445Z,62.25
2022-10-16T04:48:48.053Z,62.72
2022-10-16T04:49:21.197Z,63.34
2022-10-16T04:49:54.231Z,63.69
2022-10-16T04:50:27.700Z,63.37
2022-10-16T04:51:01.173Z,62.63
2022-10-16T04:51:34.428Z,61.86
2022-10-16T04:52:07.891Z,61.20
2022-10-16T04:52:41.029Z,60.87
2022-10-16T04:53:14.269Z,60.39
2022-10-16T04:53:47.773Z,59.91
2022-10-16T04:54:20.980Z,59.47
2022-10-16T04:54:55.117Z,59.19
2022-10-16T04:55:28.293Z,59.03
2022-10-16T04:56:01.456Z,58.77
2022-10-16T04:56:41.304Z,59.15
2022-10-16T04:57:14.453Z,59.61
2022-10-16T04:57:47.505Z,60.50
2022-10-16T04:58:20.899Z,61.21
2022-10-16T04:58:54.343Z,61.80
2022-10-16T04:59:28.039Z,62.26
2022-10-16T05:00:01.612Z,62.65
2022-10-16T05:00:35.577Z,63.31
2022-10-16T05:01:09.003Z,63.24
2022-10-16T05:01:42.255Z,63.09
2022-10-16T05:02:15.400Z,62.72
2022-10-16T05:02:48.573Z,62.08
2022-10-16T05:03:21.968Z,61.47
2022-10-16T05:03:55.146Z,60.67
2022-10-16T05:04:28.316Z,60.28
2022-10-16T05:05:01.527Z,59.90
2022-10-16T05:05:34.985Z,59.73
2022-10-16T05:06:08.946Z,59.72
2022-10-16T05:06:42.351Z,59.73
2022-10-16T05:07:15.443Z,59.65
2022-10-16T05:07:50.842Z,59.71
2022-10-16T05:08:24.080Z,59.88
2022-10-16T05:08:57.284Z,59.78
2022-10-16T05:09:30.549Z,59.29
2022-10-16T05:10:04.087Z,58.99
2022-10-16T05:10:38.471Z,59.18
2022-10-16T05:11:12.052Z,59.49
2022-10-16T05:11:45.105Z,60.03
2022-10-16T05:12:18.620Z,60.80
2022-10-16T05:12:52.730Z,61.66
2022-10-16T05:13:26.003Z,62.45
2022-10-16T05:13:59.235Z,63.03
2022-10-16T05:14:32.408Z,63.67
2022-10-16T05:15:06.338Z,64.13
2022-10-16T05:15:39.931Z,64.00
2022-10-16T05:16:13.243Z,63.78
2022-10-16T05:16:48.086Z,63.30
2022-10-16T05:17:21.498Z,62.88
2022-10-16T05:17:55.787Z,62.57
2022-10-16T05:18:29.010Z,62.28
2022-10-16T05:19:26.433Z,62.30
2022-10-16T05:19:55.475Z,62.60
2022-10-16T05:20:28.986Z,62.18
2022-10-16T05:21:02.175Z,62.09
2022-10-16T05:21:35.435Z,61.89
2022-10-16T05:22:08.930Z,61.61
2022-10-16T05:22:42.123Z,61.31
2022-10-16T05:23:15.231Z,61.03
2022-10-16T05:23:48.447Z,60.68
2022-10-16T05:24:21.708Z,60.24
2022-10-16T05:24:55.044Z,59.92
2022-10-16T05:25:28.251Z,59.62
2022-10-16T05:26:01.934Z,59.36
2022-10-16T05:26:35.235Z,59.10
2022-10-16T05:27:08.465Z,59.06
2022-10-16T05:27:41.720Z,59.26
2022-10-16T05:28:14.905Z,59.76
2022-10-16T05:28:48.359Z,60.47
2022-10-16T05:29:22.008Z,61.16
2022-10-16T05:29:55.263Z,61.85
2022-10-16T05:30:28.368Z,62.52
2022-10-16T05:31:10.232Z,63.25
2022-10-16T05:31:43.779Z,64.03
2022-10-16T05:32:19.060Z,64.30
2022-10-16T05:32:52.694Z,64.21
2022-10-16T05:33:27.030Z,64.05
2022-10-16T05:34:01.527Z,63.82
2022-10-16T05:34:34.728Z,63.46
2022-10-16T05:35:10.241Z,63.06
2022-10-16T05:35:46.503Z,62.61
2022-10-16T05:36:19.942Z,62.48
2022-10-16T05:36:53.446Z,62.22
2022-10-16T05:37:28.962Z,62.02
2022-10-16T05:38:02.579Z,61.94
2022-10-16T05:38:37.273Z,61.84
2022-10-16T05:39:10.684Z,61.78
2022-10-16T05:39:43.804Z,61.73
2022-10-16T05:40:17.961Z,61.64
2022-10-16T05:40:54.988Z,61.68
2022-10-16T05:41:29.027Z,61.60
2022-10-16T05:42:02.880Z,61.35
2022-10-16T05:42:36.286Z,61.27
2022-10-16T05:43:10.292Z,61.25
2022-10-16T05:43:43.852Z,61.26
2022-10-16T05:44:17.051Z,61.24
2022-10-16T05:44:50.190Z,61.15
2022-10-16T05:45:23.290Z,61.04
2022-10-16T05:46:04.409Z,60.89
2022-10-16T05:46:37.724Z,60.89
2022-10-16T05:47:12.183Z,60.90
2022-10-16T05:47:45.352Z,60.99
2022-10-16T05:48:18.497Z,60.99
2022-10-16T05:48:54.567Z,60.93
2022-10-16T05:49:27.802Z,60.93
2022-10-16T05:50:01.044Z,60.82
2022-10-16T05:50:34.719Z,60.78
2022-10-16T05:51:11.841Z,60.92
2022-10-16T05:51:45.837Z,60.99
2022-10-16T05:52:19.619Z,61.07
2022-10-16T05:52:53.627Z,61.24
2022-10-16T05:53:29.740Z,61.39
2022-10-16T05:54:04.117Z,61.49
2022-10-16T05:54:38.781Z,61.65
2022-10-16T05:55:13.212Z,61.87
2022-10-16T05:55:54.437Z,61.86
2022-10-16T05:56:28.818Z,61.92
2022-10-16T05:57:03.809Z,62.00
2022-10-16T05:57:37.980Z,62.04
2022-10-16T05:58:11.944Z,62.06
2022-10-16T05:58:46.107Z,62.12
2022-10-16T05:59:19.892Z,62.24
2022-10-16T05:59:53.582Z,62.48
2022-10-16T06:00:27.517Z,62.64
2022-10-16T06:01:07.222Z,62.82
2022-10-16T06:01:41.166Z,62.87
2022-10-16T06:02:15.934Z,63.03
2022-10-16T06:02:49.953Z,63.07
2022-10-16T06:03:24.155Z,63.24
2022-10-16T06:04:00.318Z,63.38
2022-10-16T06:04:33.991Z,63.49
2022-10-16T06:05:07.790Z,63.69
2022-10-16T06:05:44.303Z,63.89
2022-10-16T06:06:24.297Z,63.91
2022-10-16T06:07:01.881Z,64.05
2022-10-16T06:07:37.494Z,64.20
2022-10-16T06:08:11.295Z,64.28
2022-10-16T06:08:49.572Z,64.47
2022-10-16T06:09:23.510Z,64.56
2022-10-16T06:09:57.092Z,64.20
2022-10-16T06:10:30.941Z,63.75
2022-10-16T06:11:07.347Z,63.25
2022-10-16T06:11:41.348Z,62.82
2022-10-16T06:12:15.112Z,62.40
2022-10-16T06:12:48.842Z,62.15
2022-10-16T06:13:22.650Z,61.76
2022-10-16T06:13:58.716Z,61.38
2022-10-16T06:14:32.641Z,61.04
2022-10-16T06:15:06.605Z,60.70
2022-10-16T06:15:43.188Z,60.25
2022-10-16T06:16:17.081Z,59.99
2022-10-16T06:16:51.078Z,59.57
2022-10-16T06:17:24.927Z,59.11
2022-10-16T06:17:58.869Z,58.72
2022-10-16T06:18:33.179Z,58.79
2022-10-16T06:19:10.695Z,59.08
2022-10-16T06:19:44.530Z,59.46
2022-10-16T06:20:18.330Z,60.20
2022-10-16T06:20:52.101Z,60.97
2022-10-16T06:21:26.822Z,61.80
2022-10-16T06:22:00.207Z,62.52
2022-10-16T06:22:33.560Z,63.19
2022-10-16T06:23:07.048Z,63.70
2022-10-16T06:23:40.457Z,64.07
2022-10-16T06:24:13.910Z,64.24
2022-10-16T06:24:48.803Z,64.19
2022-10-16T06:25:21.981Z,64.23
2022-10-16T06:25:55.343Z,64.13
2022-10-16T06:26:31.025Z,64.12
2022-10-16T06:27:05.800Z,64.06
2022-10-16T06:27:42.057Z,64.17
2022-10-16T06:28:16.512Z,64.26
2022-10-16T06:28:50.393Z,63.91
2022-10-16T06:29:23.637Z,63.27
2022-10-16T06:29:56.732Z,62.70
2022-10-16T06:30:29.880Z,62.21
2022-10-16T06:31:08.145Z,61.78
2022-10-16T06:31:41.960Z,61.53
2022-10-16T06:32:15.230Z,61.27
2022-10-16T06:32:48.405Z,61.21
2022-10-16T06:33:21.593Z,61.23
2022-10-16T06:33:56.157Z,61.26
2022-10-16T06:34:29.321Z,61.25
2022-10-16T06:35:02.466Z,61.28
2022-10-16T06:35:35.592Z,61.35
2022-10-16T06:36:12.091Z,61.41
2022-10-16T06:36:45.402Z,61.53
2022-10-16T06:37:18.696Z,61.71
2022-10-16T06:37:53.710Z,61.91
2022-10-16T06:38:26.824Z,62.08
2022-10-16T06:39:00.256Z,62.24
2022-10-16T06:39:33.523Z,62.38
2022-10-16T06:40:07.333Z,62.52
2022-10-16T06:40:40.466Z,62.68
2022-10-16T06:41:16.562Z,62.85
2022-10-16T06:41:50.147Z,63.08
2022-10-16T06:42:23.517Z,63.30
2022-10-16T06:42:57.035Z,63.46
2022-10-16T06:43:34.198Z,63.53
2022-10-16T06:44:08.992Z,63.65
2022-10-16T06:44:42.164Z,64.00
2022-10-16T06:45:15.543Z,63.90
2022-10-16T06:45:56.174Z,63.65
2022-10-16T06:46:29.300Z,63.44
2022-10-16T06:47:02.398Z,62.96
2022-10-16T06:47:35.410Z,62.47
2022-10-16T06:48:08.548Z,62.02
2022-10-16T06:48:42.163Z,61.58
2022-10-16T06:49:22.518Z,61.10
2022-10-16T06:49:55.786Z,61.20
2022-10-16T06:50:28.904Z,60.62
2022-10-16T06:51:43.612Z,60.24
2022-10-16T06:52:17.069Z,59.96
2022-10-16T06:52:50.672Z,59.80
2022-10-16T06:53:24.302Z,59.69
2022-10-16T06:54:03.290Z,59.44
2022-10-16T06:54:42.333Z,59.43
2022-10-16T06:55:16.555Z,59.54
2022-10-16T06:55:50.060Z,59.96
2022-10-16T06:56:25.779Z,60.50
2022-10-16T06:57:01.249Z,61.06
2022-10-16T06:57:34.468Z,61.73
2022-10-16T06:58:07.739Z,62.50
2022-10-16T06:58:42.160Z,63.14
2022-10-16T06:59:15.486Z,63.81
2022-10-16T06:59:50.121Z,64.05
2022-10-16T07:00:26.694Z,63.98
2022-10-16T07:01:00.031Z,63.95
2022-10-16T07:01:34.260Z,63.57
2022-10-16T07:02:09.481Z,63.29
2022-10-16T07:02:42.701Z,62.70
2022-10-16T07:03:16.550Z,62.34
2022-10-16T07:03:50.246Z,61.51
2022-10-16T07:04:23.542Z,60.77
2022-10-16T07:04:58.180Z,60.26
2022-10-16T07:05:31.240Z,59.87
2022-10-16T07:06:05.613Z,59.41
2022-10-16T07:06:38.848Z,58.95
2022-10-16T07:07:12.159Z,58.72
2022-10-16T07:07:45.239Z,58.70
2022-10-16T07:08:18.556Z,59.02
2022-10-16T07:08:52.500Z,59.52
2022-10-16T07:09:26.041Z,60.07
2022-10-16T07:09:59.002Z,60.91
2022-10-16T07:10:33.398Z,61.63
2022-10-16T07:11:11.169Z,62.35
2022-10-16T07:11:44.473Z,63.13
2022-10-16T07:12:17.673Z,64.02
2022-10-16T07:12:51.179Z,64.38
2022-10-16T07:13:24.282Z,64.17
2022-10-16T07:13:57.432Z,63.93
2022-10-16T07:14:31.428Z,63.35
2022-10-16T07:15:05.142Z,62.74
2022-10-16T07:15:38.300Z,62.44
2022-10-16T07:16:20.590Z,62.16
2022-10-16T07:16:53.892Z,61.96
2022-10-16T07:17:27.117Z,61.57
2022-10-16T07:18:00.837Z,61.31
2022-10-16T07:18:34.261Z,61.47
2022-10-16T07:19:07.952Z,61.57
2022-10-16T07:19:41.269Z,61.34
2022-10-16T07:20:14.700Z,61.03
2022-10-16T07:20:47.791Z,60.92
2022-10-16T07:21:22.614Z,60.59
2022-10-16T07:21:55.843Z,60.39
2022-10-16T07:22:30.171Z,60.33
2022-10-16T07:23:03.371Z,60.21
2022-10-16T07:23:36.682Z,60.19
2022-10-16T07:24:17.518Z,60.19
2022-10-16T07:24:52.892Z,60.26
2022-10-16T07:25:26.120Z,60.25
2022-10-16T07:25:59.491Z,60.19
2022-10-16T07:26:35.867Z,59.93
2022-10-16T07:27:09.057Z,59.28
2022-10-16T07:27:42.296Z,58.44
2022-10-16T07:28:15.779Z,58.01
2022-10-16T07:28:49.328Z,58.13
2022-10-16T07:29:23.081Z,58.53
2022-10-16T07:29:56.407Z,59.04
2022-10-16T07:30:29.647Z,59.62
2022-10-16T07:31:09.137Z,60.28
2022-10-16T07:31:43.478Z,60.88
2022-10-16T07:32:16.944Z,61.83
2022-10-16T07:32:50.119Z,62.21
2022-10-16T07:33:23.315Z,62.51
2022-10-16T07:33:56.800Z,62.99
2022-10-16T07:34:30.120Z,63.29
2022-10-16T07:35:03.605Z,63.17
2022-10-16T07:35:37.213Z,62.90
2022-10-16T07:36:15.175Z,62.61
2022-10-16T07:36:51.250Z,62.32
2022-10-16T07:37:24.866Z,61.76